首页
METAR-TAF:

METAR-TAF

机场 :

Seneca, 俄勒冈州, 美国

纬度: 44-08-18N, 经度: 118-58-54W, 海拔: 1422米

当前天气观测

该预报发布于12分钟前的02:35 UTC
静风
温度 -1°C
湿度 93%
气压 1008 hPa
能見度: 16.1公里
多云层高于4800英尺
多云层高于6500英尺

METAR: KGCD 170235Z AUTO 00000KT 10SM BKN048 BKN065 M01/M02 A2978 RMK AO2 T10061020

时间: 18:47 (02:47 UTC)


TAF: 丢失

超过4000个机场的气象观测和天气预报(METAR&TAF报告)。

可查询的气象台以黄色和红色小点在地图上表示。

将鼠标移到小点上方,可查看气象台名称。

然后点击查看天气观测和预报。

如需切换地图:点击带黑十字的绿色按钮放大地图;点击带横线的绿色按钮缩小地图;或者点击绿色箭头查看邻近地区的地图。


METAR-TAF: